Time;durP1;ratioP1;P1;durP2;ratioP2;P2;SDS_P1;SDS_P2;PMS_P1;PMS_P2;Temp;Humidity;BMP_temperature;BMP_pressure;BME280_temperature;BME280_humidity;BME280_pressure;Samples;Min_cycle;Max_cycle;Signal;HPM_P1;HPM_P2
2022/03/23 00:01:53;;;;;;;15.53;9.93;;;6.20;58.50;;;5.15;48.28;98529.81;4993936;28;20399;-76
2022/03/23 00:04:21;;;;;;;14.63;10.68;;;6.20;57.80;;;5.17;48.10;98527.03;4994219;28;20444;-75
2022/03/23 00:06:47;;;;;;;12.20;9.30;;;6.30;57.40;;;5.15;48.20;98531.63;5009239;28;20764;-76
2022/03/23 00:09:14;;;;;;;16.25;10.40;;;6.30;57.40;;;5.12;48.46;98532.00;4994200;28;20493;-77
2022/03/23 00:11:40;;;;;;;14.27;9.73;;;6.30;57.90;;;5.01;49.00;98534.16;4993926;28;20748;-76
2022/03/23 00:14:07;;;;;;;17.03;10.10;;;6.20;58.00;;;5.05;49.21;98529.31;4994080;28;20475;-76
2022/03/23 00:16:36;;;;;;;14.02;9.65;;;6.10;58.10;;;5.01;48.96;98528.09;4995001;28;20410;-77
2022/03/23 00:19:02;;;;;;;14.95;10.50;;;6.20;57.90;;;5.02;48.92;98529.72;4995943;28;20409;-77
2022/03/23 00:21:30;;;;;;;15.60;10.20;;;6.20;58.00;;;5.02;48.33;98527.09;4993779;28;20961;-77
2022/03/23 00:23:56;;;;;;;17.27;10.70;;;6.20;57.60;;;5.01;48.43;98523.66;4995868;28;20506;-77
2022/03/23 00:26:22;;;;;;;16.08;10.82;;;6.10;57.40;;;5.04;48.33;98528.50;4995450;28;20441;-77
2022/03/23 00:28:48;;;;;;;14.57;9.85;;;6.10;57.50;;;4.93;48.57;98525.56;4993905;28;20472;-76
2022/03/23 00:31:15;;;;;;;11.13;8.37;;;6.10;57.30;;;4.85;48.88;98534.38;4993417;28;20464;-76
2022/03/23 00:33:41;;;;;;;16.23;10.75;;;6.00;57.60;;;4.94;49.79;98527.22;4993794;28;20475;-76
2022/03/23 00:36:09;;;;;;;15.65;10.93;;;6.00;58.50;;;4.89;49.57;98538.25;4993778;28;20489;-76
2022/03/23 00:38:36;;;;;;;16.30;10.63;;;6.00;58.50;;;4.78;49.44;98530.06;4993711;28;20900;-77
2022/03/23 00:41:03;;;;;;;15.32;10.20;;;5.90;58.50;;;4.65;49.76;98533.38;4993239;28;20410;-77
2022/03/23 00:43:29;;;;;;;14.90;10.00;;;5.90;58.70;;;4.61;50.21;98532.91;4993574;28;20977;-77
2022/03/23 00:45:56;;;;;;;15.02;10.18;;;5.80;59.10;;;4.62;49.86;98538.97;4993669;28;20411;-77
2022/03/23 00:48:22;;;;;;;13.93;10.35;;;5.80;59.00;;;4.69;49.60;98537.22;4993679;28;20760;-76
2022/03/23 00:50:48;;;;;;;14.60;10.40;;;5.80;58.90;;;4.68;49.84;98539.03;4993358;28;20398;-76
2022/03/23 00:53:14;;;;;;;19.67;10.80;;;5.80;58.70;;;4.66;49.38;98535.00;4993531;28;20804;-77
2022/03/23 00:55:42;;;;;;;17.02;10.43;;;5.80;58.50;;;4.65;48.80;98536.81;4993475;28;20402;-76
2022/03/23 00:58:08;;;;;;;18.58;10.68;;;5.70;58.20;;;4.59;48.91;98531.47;4993303;28;20433;-76
2022/03/23 01:00:34;;;;;;;16.45;10.15;;;5.80;58.10;;;4.57;48.83;98536.91;4992680;28;20541;-76
2022/03/23 01:03:00;;;;;;;14.95;10.60;;;5.70;58.00;;;4.56;49.33;98530.03;4993143;28;20923;-76
2022/03/23 01:05:27;;;;;;;15.90;10.13;;;5.70;58.30;;;4.56;49.07;98534.47;4993405;28;20897;-76
2022/03/23 01:07:53;;;;;;;19.92;11.65;;;5.70;58.20;;;4.52;48.86;98525.31;4993358;28;20406;-76
2022/03/23 01:10:21;;;;;;;14.90;10.35;;;5.70;57.90;;;4.48;49.17;98526.72;4992429;28;20430;-77
2022/03/23 01:12:48;;;;;;;17.48;10.98;;;5.70;58.20;;;4.41;49.39;98531.06;5008503;23;20548;-74
2022/03/23 01:15:17;;;;;;;16.40;10.55;;;5.60;58.30;;;4.40;49.94;98527.63;5010244;28;20491;-73
2022/03/23 01:17:43;;;;;;;13.68;10.00;;;5.60;58.60;;;4.33;49.20;98529.34;5012482;28;20591;-73
2022/03/23 01:20:12;;;;;;;19.10;10.60;;;5.50;58.30;;;4.33;49.63;98521.50;5012339;28;20419;-74
2022/03/23 01:22:40;;;;;;;15.75;10.52;;;5.50;58.90;;;4.30;49.85;98519.22;5012171;28;20428;-74
2022/03/23 01:25:09;;;;;;;15.43;11.10;;;5.50;59.00;;;4.33;49.70;98520.69;5012463;28;20504;-74
2022/03/23 01:27:35;;;;;;;16.08;11.20;;;5.50;58.80;;;4.28;49.92;98519.41;5012320;28;20409;-74
2022/03/23 01:30:05;;;;;;;16.10;10.80;;;5.50;58.90;;;4.26;50.04;98515.34;5012145;28;20501;-74
2022/03/23 01:32:31;;;;;;;16.98;11.00;;;5.40;59.10;;;4.14;49.88;98512.38;5007239;28;20421;-74
2022/03/23 01:34:57;;;;;;;20.40;11.60;;;5.40;59.00;;;4.18;50.54;98512.84;5012051;28;20407;-74
2022/03/23 01:37:23;;;;;;;15.38;11.23;;;5.30;59.40;;;4.13;50.82;98513.41;5012112;28;20483;-73
2022/03/23 01:39:49;;;;;;;15.37;11.10;;;5.30;59.70;;;4.08;50.84;98513.09;5012003;28;20916;-74
2022/03/23 01:42:15;;;;;;;15.68;12.15;;;5.30;59.90;;;4.06;51.72;98517.72;5011435;28;20488;-73
2022/03/23 01:44:41;;;;;;;19.23;12.70;;;5.20;60.50;;;4.07;52.03;98510.66;5011988;28;20408;-73
2022/03/23 01:47:10;;;;;;;21.63;11.98;;;5.20;61.00;;;3.92;51.97;98515.09;5011999;28;20744;-74
2022/03/23 01:49:39;;;;;;;19.30;12.25;;;5.10;61.20;;;3.94;52.35;98513.94;5011840;28;20941;-74
2022/03/23 01:52:08;;;;;;;18.17;12.23;;;5.10;61.60;;;3.85;52.64;98515.81;5011422;28;20424;-74
2022/03/23 01:54:36;;;;;;;16.52;12.43;;;5.10;62.10;;;3.87;52.51;98513.84;5011634;28;20501;-73
2022/03/23 01:57:04;;;;;;;14.43;10.48;;;5.00;62.10;;;3.71;52.66;98506.16;5010834;28;20495;-73
2022/03/23 01:59:31;;;;;;;13.38;10.32;;;5.00;62.10;;;3.65;52.79;98514.75;5011407;28;20914;-74
2022/03/23 02:01:58;;;;;;;15.45;11.48;;;4.90;62.30;;;3.68;53.23;98516.19;5010975;28;20396;-73
2022/03/23 02:04:26;;;;;;;21.23;13.15;;;4.90;62.60;;;3.72;54.19;98520.88;5011470;28;20405;-74
2022/03/23 02:06:52;;;;;;;19.27;12.75;;;4.90;63.80;;;3.65;54.00;98512.13;5011625;28;20407;-73
2022/03/23 02:09:19;;;;;;;18.55;12.98;;;4.90;64.00;;;3.63;54.22;98508.84;5011590;28;20409;-73
2022/03/23 02:11:47;;;;;;;15.75;11.18;;;4.80;64.20;;;3.50;54.13;98512.09;5011109;28;20397;-73
2022/03/23 02:14:13;;;;;;;16.27;11.10;;;4.70;64.10;;;3.41;54.49;98512.34;4991635;28;20410;-74
2022/03/23 02:16:40;;;;;;;18.65;13.10;;;4.70;64.20;;;3.48;54.53;98506.22;4991784;28;20769;-74
2022/03/23 02:19:06;;;;;;;20.98;13.75;;;4.70;64.70;;;3.54;55.10;98503.88;4991744;28;20493;-73
2022/03/23 02:21:34;;;;;;;19.70;13.23;;;4.70;65.60;;;3.41;55.08;98510.53;4991415;28;20417;-74
2022/03/23 02:24:03;;;;;;;22.10;13.48;;;4.60;65.50;;;3.45;55.33;98503.97;4991113;28;20395;-73
2022/03/23 02:26:29;;;;;;;18.10;13.15;;;4.70;65.90;;;3.43;55.26;98503.34;4991814;28;20410;-73
2022/03/23 02:28:55;;;;;;;22.52;11.82;;;4.60;65.90;;;3.43;54.87;98505.13;4991521;28;20422;-73
2022/03/23 02:31:21;;;;;;;18.58;12.30;;;4.60;65.40;;;3.40;54.87;98505.47;5008505;28;20499;-73
2022/03/23 02:33:47;;;;;;;18.70;12.88;;;4.60;65.50;;;3.39;55.25;98509.09;5011022;28;20444;-74
2022/03/23 02:36:13;;;;;;;15.15;11.73;;;4.60;66.20;;;3.33;55.42;98512.41;5011107;28;20427;-74
2022/03/23 02:38:39;;;;;;;17.10;12.80;;;4.60;66.00;;;3.38;55.44;98517.97;5011080;28;20405;-73
2022/03/23 02:41:06;;;;;;;17.67;13.52;;;4.60;66.30;;;3.38;56.16;98505.66;5010599;28;20405;-74
2022/03/23 02:43:32;;;;;;;18.20;13.45;;;4.50;66.90;;;3.39;56.05;98506.47;5010818;28;20397;-73
2022/03/23 02:45:58;;;;;;;17.37;12.57;;;4.50;67.20;;;3.24;56.36;98509.06;5010829;28;20912;-74
2022/03/23 02:48:24;;;;;;;18.40;12.15;;;4.50;67.20;;;3.18;55.75;98520.22;5010897;28;20831;-73
2022/03/23 02:50:50;;;;;;;16.23;11.27;;;4.50;66.90;;;3.17;55.68;98515.97;5010330;28;20412;-73
2022/03/23 03:01:54;;;;;;;20.30;13.30;;;4.40;67.90;;;3.15;56.43;98523.22;5010368;28;20404;-73
2022/03/23 03:04:20;;;;;;;20.02;13.65;;;4.40;67.70;;;3.13;56.51;98521.75;5010554;28;20914;-73
2022/03/23 03:06:46;;;;;;;20.65;13.43;;;4.30;67.60;;;3.09;57.02;98531.75;5010736;28;20407;-73
2022/03/23 03:09:12;;;;;;;17.30;12.20;;;4.30;68.20;;;2.96;56.81;98526.28;5010722;28;20483;-74
2022/03/23 03:11:38;;;;;;;20.60;13.80;;;4.20;68.20;;;2.98;56.83;98532.97;5010294;28;20478;-74
2022/03/23 03:14:05;;;;;;;20.05;14.30;;;4.20;68.40;;;3.03;56.90;98530.66;5010216;28;20482;-74
2022/03/23 03:16:31;;;;;;;20.75;14.15;;;4.20;68.50;;;2.98;56.81;98529.56;5010574;28;20774;-74
2022/03/23 03:18:57;;;;;;;20.75;14.23;;;4.20;68.50;;;2.98;57.00;98537.41;5010382;28;20441;-73
2022/03/23 03:21:23;;;;;;;21.85;14.38;;;4.20;68.60;;;2.95;57.16;98537.72;5010160;28;20419;-74
2022/03/23 03:23:49;;;;;;;16.52;12.73;;;4.20;68.90;;;2.86;57.34;98530.94;5010336;28;20424;-73
2022/03/23 03:26:17;;;;;;;21.08;13.25;;;4.10;69.70;;;2.81;57.33;98541.91;5010452;28;20407;-73
2022/03/23 03:28:44;;;;;;;22.95;15.75;;;4.10;69.00;;;2.88;58.25;98540.22;5010552;28;20408;-74
2022/03/23 03:31:13;;;;;;;19.70;13.95;;;4.10;70.00;;;2.74;57.87;98538.38;5010031;28;20493;-73
2022/03/23 03:33:39;;;;;;;22.35;15.70;;;4.00;69.50;;;2.83;58.07;98547.78;5010727;28;20424;-73
2022/03/23 03:36:06;;;;;;;20.60;15.02;;;4.00;70.00;;;2.80;58.40;98548.13;5014538;28;20401;-73
2022/03/23 03:38:34;;;;;;;27.83;15.57;;;4.00;70.40;;;2.81;58.29;98547.16;5014233;28;20969;-73
2022/03/23 03:41:02;;;;;;;23.48;15.52;;;4.00;70.50;;;2.75;58.31;98542.63;5013745;28;20487;-73
2022/03/23 03:43:28;;;;;;;23.85;15.93;;;3.90;70.60;;;2.72;58.63;98538.53;5014094;28;20405;-75
2022/03/23 03:45:54;;;;;;;22.08;15.23;;;3.90;70.70;;;2.76;58.39;98540.81;5014120;28;20829;-73
2022/03/23 03:48:22;;;;;;;21.38;15.20;;;3.90;70.80;;;2.69;58.19;98544.13;5013969;28;20400;-74
2022/03/23 03:50:48;;;;;;;18.00;13.85;;;3.90;70.40;;;2.64;58.72;98548.22;5013761;28;20548;-74
2022/03/23 03:53:15;;;;;;;19.25;14.73;;;3.90;70.50;;;2.63;58.58;98542.19;5013834;28;20929;-74
2022/03/23 03:55:41;;;;;;;20.23;13.82;;;3.90;71.40;;;2.58;58.21;98547.13;5014011;28;20906;-74
2022/03/23 03:58:08;;;;;;;20.77;15.20;;;3.80;70.40;;;2.63;58.88;98546.63;5013903;28;20397;-74
2022/03/23 04:00:35;;;;;;;24.33;16.00;;;3.80;70.90;;;2.60;58.53;98545.16;5013523;28;20404;-74
2022/03/23 04:03:01;;;;;;;21.25;15.18;;;3.80;70.90;;;2.53;58.82;98543.41;5014312;28;20405;-74
2022/03/23 04:05:29;;;;;;;20.45;15.52;;;3.80;71.00;;;2.49;59.10;98548.13;5014099;28;20437;-75
2022/03/23 04:07:55;;;;;;;25.05;15.95;;;3.80;71.30;;;2.49;59.02;98549.94;5013690;28;20405;-73
2022/03/23 04:10:21;;;;;;;25.60;16.60;;;3.70;71.30;;;2.48;59.33;98548.34;5013279;28;20435;-74
2022/03/23 04:12:47;;;;;;;24.92;16.65;;;3.70;71.90;;;2.46;59.61;98551.13;5013337;28;20416;-74
2022/03/23 04:15:14;;;;;;;19.63;14.93;;;3.70;72.20;;;2.31;59.23;98544.97;5013762;28;20810;-74
2022/03/23 04:17:40;;;;;;;21.52;15.95;;;3.60;71.90;;;2.34;59.36;98537.59;5013449;28;20405;-74
2022/03/23 04:20:08;;;;;;;21.48;16.20;;;3.60;72.20;;;2.36;59.67;98544.44;5013240;28;20404;-74
2022/03/23 04:22:35;;;;;;;27.58;16.88;;;3.60;72.30;;;2.33;59.85;98550.84;5013201;28;20409;-74
2022/03/23 04:25:01;;;;;;;25.40;17.45;;;3.60;72.30;;;2.27;59.69;98547.09;5013472;28;20400;-74
2022/03/23 04:27:27;;;;;;;22.90;16.65;;;3.50;72.30;;;2.27;60.11;98544.50;5013392;28;20478;-74
2022/03/23 04:29:53;;;;;;;25.80;16.87;;;3.50;72.70;;;2.30;59.99;98543.34;5013132;28;20512;-74
2022/03/23 04:32:19;;;;;;;22.95;17.27;;;3.50;72.80;;;2.20;59.84;98543.53;5012772;28;20467;-75
2022/03/23 04:34:45;;;;;;;24.97;17.53;;;3.50;72.80;;;2.29;60.37;98552.16;5011795;28;20428;-74
2022/03/23 04:37:11;;;;;;;26.42;17.65;;;3.50;73.10;;;2.27;60.00;98544.50;5013083;28;20418;-74
2022/03/23 04:39:38;;;;;;;23.77;17.07;;;3.40;73.30;;;2.17;60.21;98556.13;5012998;28;20443;-74
2022/03/23 04:42:05;;;;;;;22.27;16.10;;;3.40;73.30;;;2.11;60.20;98562.00;5012857;28;20401;-74
2022/03/23 04:44:30;;;;;;;21.73;16.02;;;3.40;73.20;;;2.10;60.15;98563.84;5012934;28;20420;-74
2022/03/23 04:46:56;;;;;;;24.17;16.10;;;3.40;73.40;;;2.02;60.20;98555.22;5012145;28;20404;-74
2022/03/23 04:49:22;;;;;;;24.42;16.73;;;3.30;73.40;;;2.07;60.77;98558.94;5012902;28;20424;-75
2022/03/23 04:51:48;;;;;;;25.58;17.30;;;3.30;74.00;;;2.05;60.67;98568.72;5009692;28;20442;-75
2022/03/23 04:54:14;;;;;;;21.45;16.13;;;3.30;74.10;;;1.98;60.42;98567.78;5014042;28;20875;-75
2022/03/23 04:56:41;;;;;;;18.95;13.95;;;3.20;73.80;;;1.90;60.84;98568.59;5014883;28;20445;-76
2022/03/23 04:59:07;;;;;;;22.23;15.82;;;3.20;73.80;;;1.94;60.78;98566.50;5028234;28;20511;-75
2022/03/23 05:01:34;;;;;;;23.35;16.48;;;3.20;74.10;;;1.98;60.88;98569.56;5011419;28;21032;-75
2022/03/23 05:04:00;;;;;;;26.67;17.70;;;3.20;74.20;;;2.00;60.97;98570.22;5011012;28;20783;-74
2022/03/23 05:06:26;;;;;;;23.25;17.05;;;3.20;74.50;;;1.94;61.02;98569.91;5012957;28;20413;-74
2022/03/23 05:08:52;;;;;;;22.55;17.35;;;3.20;74.80;;;1.97;61.36;98567.94;5016832;28;20924;-74
2022/03/23 05:11:18;;;;;;;23.90;16.93;;;3.20;74.80;;;1.89;60.85;98568.75;5011770;28;20412;-74
2022/03/23 05:13:45;;;;;;;23.35;17.10;;;3.10;74.50;;;1.91;61.23;98565.00;5023922;28;20473;-74
2022/03/23 05:16:11;;;;;;;22.33;16.45;;;3.10;74.70;;;1.86;60.67;98571.72;5019743;28;20415;-74
2022/03/23 05:18:37;;;;;;;24.17;16.73;;;3.10;74.80;;;1.88;61.30;98572.38;5020630;28;20405;-74
2022/03/23 05:21:03;;;;;;;24.55;15.95;;;3.10;75.10;;;1.79;61.26;98570.75;5009493;28;20413;-75
2022/03/23 05:23:28;;;;;;;21.10;15.50;;;3.10;75.10;;;1.78;61.77;98569.94;5008496;28;21120;-75
2022/03/23 05:25:54;;;;;;;20.63;16.17;;;3.00;75.20;;;1.84;62.31;98565.84;5010089;28;20420;-74
2022/03/23 05:28:20;;;;;;;21.53;15.90;;;3.00;76.30;;;1.74;62.13;98565.22;5006812;28;20913;-74
2022/03/23 05:30:47;;;;;;;24.33;13.23;;;3.00;75.90;;;1.70;61.77;98569.97;5009813;28;20496;-73
2022/03/23 05:33:13;;;;;;;20.92;15.95;;;3.00;75.70;;;1.78;62.03;98579.56;5013077;28;20467;-73
2022/03/23 05:35:39;;;;;;;26.58;18.88;;;3.00;75.80;;;1.82;62.64;98573.03;5012488;28;20412;-73
2022/03/23 05:38:05;;;;;;;27.08;18.67;;;3.00;76.60;;;1.77;62.06;98581.38;5025329;28;20399;-73
2022/03/23 05:40:31;;;;;;;28.33;19.05;;;3.00;76.60;;;1.80;62.97;98577.63;5027358;28;20785;-73
2022/03/23 05:42:57;;;;;;;25.60;18.73;;;3.00;77.10;;;1.72;62.84;98573.22;5007478;28;20799;-74
2022/03/23 05:45:23;;;;;;;23.13;17.43;;;3.00;76.80;;;1.82;62.85;98583.47;5011403;28;20405;-75
2022/03/23 05:47:53;;;;;;;36.07;20.60;;;3.00;76.80;;;1.86;63.60;98582.16;5004912;28;20467;-75
2022/03/23 05:50:19;;;;;;;28.20;20.70;;;3.10;77.60;;;1.84;63.38;98576.28;5013425;28;20502;-74
2022/03/23 05:52:45;;;;;;;25.83;18.52;;;3.10;77.70;;;1.81;63.05;98582.66;5011407;28;20424;-75
2022/03/23 05:55:11;;;;;;;23.33;17.45;;;3.10;77.50;;;1.81;63.15;98584.44;5011705;28;20409;-75
2022/03/23 05:57:38;;;;;;;28.33;20.60;;;3.00;77.40;;;1.93;63.97;98581.34;5010176;28;20517;-77
2022/03/23 06:00:06;;;;;;;26.73;19.65;;;3.10;78.30;;;1.92;63.51;98587.53;5011177;28;20813;-76
2022/03/23 06:02:32;;;;;;;23.75;17.35;;;3.20;78.30;;;1.90;63.44;98583.44;5010316;28;20433;-76
2022/03/23 06:04:59;;;;;;;24.15;16.92;;;3.20;78.00;;;1.94;63.46;98593.41;5011110;28;20492;-75
2022/03/23 06:07:25;;;;;;;29.25;21.08;;;3.20;77.90;;;2.05;64.14;98600.06;5005648;28;20420;-75
2022/03/23 06:09:51;;;;;;;26.08;16.88;;;3.30;78.60;;;2.02;63.16;98586.53;5008174;28;20936;-75
2022/03/23 06:12:17;;;;;;;22.83;16.40;;;3.30;78.10;;;2.06;63.12;98593.03;5010677;28;20740;-75
2022/03/23 06:14:43;;;;;;;23.27;16.63;;;3.30;77.80;;;2.12;62.58;98590.56;5010918;28;20409;-75
2022/03/23 06:17:10;;;;;;;26.40;18.13;;;3.40;77.50;;;2.24;62.40;98594.47;5009760;28;20914;-75
2022/03/23 06:19:36;;;;;;;24.33;17.70;;;3.40;77.40;;;2.22;62.23;98590.38;5011247;28;20417;-75
2022/03/23 06:22:04;;;;;;;25.02;17.20;;;3.40;77.10;;;2.32;61.79;98597.06;5010830;28;20412;-76
2022/03/23 06:24:30;;;;;;;22.67;16.30;;;3.50;76.50;;;2.36;61.77;98600.13;5009556;28;20412;-76
2022/03/23 06:26:56;;;;;;;20.60;15.30;;;3.60;76.40;;;2.42;61.58;98604.69;5011006;28;20906;-76
2022/03/23 06:29:22;;;;;;;20.20;15.17;;;3.60;76.30;;;2.49;61.62;98605.63;5010859;28;20480;-75
2022/03/23 06:31:48;;;;;;;18.67;14.98;;;3.70;76.10;;;2.57;61.19;98604.78;5010571;28;20468;-75
2022/03/23 06:34:14;;;;;;;21.05;15.80;;;3.70;75.80;;;2.64;61.13;98606.53;5010822;28;20909;-75
2022/03/23 06:36:40;;;;;;;18.43;14.23;;;3.80;75.70;;;2.75;60.77;98601.94;5010924;28;20408;-75
2022/03/23 06:39:08;;;;;;;21.33;16.45;;;3.90;75.40;;;2.84;60.75;98608.75;5010844;28;20487;-76
2022/03/23 06:41:33;;;;;;;21.85;15.15;;;4.00;75.30;;;2.92;60.61;98612.13;5010607;28;20440;-76
2022/03/23 06:43:59;;;;;;;20.45;14.93;;;4.10;75.10;;;3.02;60.65;98611.91;5010734;28;20440;-75
2022/03/23 06:46:25;;;;;;;23.33;16.17;;;4.20;74.90;;;3.12;60.09;98628.19;5010904;28;20413;-75
2022/03/23 06:48:51;;;;;;;21.55;15.38;;;4.30;74.70;;;3.21;60.10;98621.13;5010936;28;20456;-75
2022/03/23 06:51:18;;;;;;;18.17;14.85;;;4.40;74.40;;;3.30;59.79;98631.34;5010316;28;20412;-75
2022/03/23 06:53:44;;;;;;;21.02;15.95;;;4.40;74.20;;;3.38;59.76;98633.88;5010503;28;20511;-78
2022/03/23 06:56:11;;;;;;;20.13;15.43;;;4.50;74.00;;;3.47;59.65;98632.84;5010744;28;20466;-78
2022/03/23 06:58:38;;;;;;;24.48;16.80;;;4.60;73.80;;;3.57;59.56;98639.66;5010632;28;20415;-75
2022/03/23 07:01:04;;;;;;;20.60;15.23;;;4.70;73.80;;;3.67;59.57;98635.00;5010290;28;20411;-75
2022/03/23 07:03:29;;;;;;;18.85;15.43;;;4.80;73.70;;;3.75;59.34;98637.56;5010822;28;20393;-74
2022/03/23 07:05:55;;;;;;;20.02;15.52;;;4.80;73.70;;;3.84;59.40;98633.84;5010802;28;20775;-74
2022/03/23 07:11:06;;;;;;;22.40;16.08;;;5.00;73.60;;;4.03;59.33;98635.16;5010470;28;20403;-74
2022/03/23 07:13:33;;;;;;;24.02;16.40;;;5.10;73.50;;;4.11;59.15;98646.38;5024029;23;20723;-76
2022/03/23 07:15:59;;;;;;;26.60;18.80;;;5.20;73.50;;;4.20;59.16;98655.81;5006477;28;20609;-76
2022/03/23 07:18:25;;;;;;;22.95;17.05;;;5.30;73.60;;;4.29;59.12;98646.03;5005834;28;20401;-76
2022/03/23 07:20:51;;;;;;;20.55;15.98;;;5.30;73.50;;;4.40;59.24;98647.41;5010159;28;20427;-76
2022/03/23 07:23:17;;;;;;;22.42;16.98;;;5.50;73.50;;;4.50;59.06;98655.81;5010538;28;20403;-77
2022/03/23 07:25:43;;;;;;;24.33;17.52;;;5.60;73.50;;;4.59;59.03;98654.69;5010617;28;20902;-76
2022/03/23 07:28:09;;;;;;;24.43;17.37;;;5.60;73.40;;;4.67;58.94;98660.66;5009219;28;20412;-76
2022/03/23 07:30:39;;;;;;;23.85;17.15;;;5.70;73.10;;;4.78;58.66;98669.91;5010010;28;20885;-76
2022/03/23 07:33:06;;;;;;;22.15;17.00;;;5.80;72.90;;;4.87;58.77;98660.94;5010424;28;20447;-76
2022/03/23 07:35:32;;;;;;;26.48;17.20;;;5.90;72.80;;;4.97;58.70;98668.50;5010332;28;20467;-76
2022/03/23 07:37:58;;;;;;;26.83;18.98;;;6.00;72.80;;;5.05;58.90;98661.34;5010056;28;20891;-77
2022/03/23 07:40:24;;;;;;;23.98;17.67;;;6.10;72.90;;;5.15;58.68;98663.69;5007810;28;20417;-77
2022/03/23 07:42:50;;;;;;;23.05;17.10;;;6.20;72.90;;;5.25;58.45;98663.38;5010252;28;20412;-77
2022/03/23 07:45:16;;;;;;;25.92;17.80;;;6.30;72.60;;;5.34;58.21;98660.44;5010254;28;20401;-76
2022/03/23 07:47:44;;;;;;;24.02;17.48;;;6.30;72.40;;;5.45;58.23;98670.47;5009156;28;20452;-79
2022/03/23 07:50:10;;;;;;;26.83;18.52;;;6.40;72.30;;;5.54;57.88;98659.84;5009812;28;20401;-76
2022/03/23 07:52:36;;;;;;;32.08;18.08;;;6.50;72.20;;;5.65;57.92;98661.97;5006244;28;20416;-83
2022/03/23 07:55:03;;;;;;;25.38;17.73;;;6.60;72.00;;;5.74;58.05;98663.47;5004917;28;20421;-79
2022/03/23 07:57:29;;;;;;;27.10;18.60;;;6.70;72.00;;;5.84;58.12;98663.97;5008373;28;20832;-80
2022/03/23 07:59:57;;;;;;;29.65;18.80;;;6.80;72.10;;;5.94;57.81;98667.09;5006494;28;20417;-80
2022/03/23 08:02:24;;;;;;;23.38;16.63;;;6.90;71.90;;;6.06;57.30;98667.41;5007210;28;20513;-80
2022/03/23 08:04:51;;;;;;;23.17;16.42;;;7.00;71.00;;;6.19;56.73;98667.50;5009817;28;20419;-81
2022/03/23 08:07:17;;;;;;;23.80;16.45;;;7.10;70.50;;;6.31;56.34;98668.59;5007705;28;20406;-81
2022/03/23 08:09:43;;;;;;;23.73;16.63;;;7.20;70.10;;;6.43;55.98;98674.94;5008715;28;20451;-81
2022/03/23 08:12:09;;;;;;;22.77;15.60;;;7.40;69.60;;;6.54;55.55;98673.59;5000855;28;20486;-81
2022/03/23 08:14:35;;;;;;;23.75;17.50;;;7.40;68.70;;;6.66;54.86;98666.78;5002690;28;20440;-81
2022/03/23 08:17:01;;;;;;;23.50;16.73;;;7.60;68.00;;;6.80;54.50;98665.84;5007800;28;20909;-78
2022/03/23 08:19:27;;;;;;;22.88;15.95;;;7.70;67.50;;;6.93;54.35;98672.97;5009594;28;20412;-81
2022/03/23 08:21:54;;;;;;;21.67;15.97;;;7.80;68.10;;;7.06;54.09;98674.88;5009693;28;20463;-82
2022/03/23 08:24:30;;;;;;;23.33;15.25;;;7.90;66.90;;;7.19;53.63;98682.81;4999987;28;20489;-82
2022/03/23 08:26:57;;;;;;;23.25;16.23;;;8.10;66.70;;;7.28;53.76;98677.19;5007704;28;20607;-83
2022/03/23 08:29:24;;;;;;;23.65;15.73;;;8.20;66.50;;;7.39;53.17;98679.22;5008433;28;20922;-77
2022/03/23 08:31:50;;;;;;;24.60;15.57;;;8.30;65.80;;;7.52;52.73;98677.66;5012458;28;20496;-75
2022/03/23 08:34:16;;;;;;;22.00;14.13;;;8.40;65.30;;;7.62;51.92;98672.78;5011050;28;20487;-77
2022/03/23 08:36:42;;;;;;;23.48;15.40;;;8.50;64.20;;;7.69;50.63;98671.78;5007944;28;20480;-77
2022/03/23 08:39:09;;;;;;;20.70;15.50;;;8.50;62.40;;;7.80;50.24;98674.84;5009306;28;20418;-80
2022/03/23 08:41:35;;;;;;;18.95;13.95;;;8.60;61.70;;;7.92;50.01;98674.03;5003504;28;20450;-76
2022/03/23 08:44:01;;;;;;;20.93;14.60;;;8.70;61.10;;;8.02;48.92;98671.81;5009925;28;20861;-77
2022/03/23 08:46:27;;;;;;;20.75;14.20;;;8.90;60.00;;;8.11;48.42;98673.25;5008105;28;20420;-77
2022/03/23 08:48:53;;;;;;;17.97;13.10;;;8.90;59.40;;;8.21;48.55;98672.81;5013518;28;20416;-77
2022/03/23 08:51:19;;;;;;;15.68;11.90;;;9.00;59.50;;;8.31;48.52;98673.25;5009649;28;20443;-77
2022/03/23 08:53:46;;;;;;;17.40;12.13;;;9.10;59.40;;;8.40;48.24;98672.03;5013712;28;20458;-77
2022/03/23 08:56:13;;;;;;;19.27;13.10;;;9.20;59.20;;;8.50;47.47;98667.13;5013740;28;20417;-77
2022/03/23 08:58:47;;;;;;;13.87;11.23;;;9.30;58.40;;;8.60;46.60;98658.78;5011906;28;20400;-79
2022/03/23 09:01:14;;;;;;;19.38;12.60;;;9.40;57.40;;;8.68;45.45;98658.56;5004187;28;20400;-77
2022/03/23 09:03:40;;;;;;;17.10;11.88;;;9.50;56.00;;;8.80;45.26;98662.16;5024277;28;20441;-77
2022/03/23 09:06:06;;;;;;;14.65;11.88;;;9.60;55.60;;;8.90;45.32;98662.53;5012173;28;20780;-82
2022/03/23 09:08:32;;;;;;;17.70;12.45;;;9.70;55.70;;;9.02;45.79;98669.81;5023371;28;20404;-79
2022/03/23 09:10:59;;;;;;;16.80;12.77;;;9.80;56.00;;;9.12;45.37;98663.06;5014575;28;20409;-76
2022/03/23 09:13:26;;;;;;;15.83;12.17;;;9.90;55.70;;;9.22;45.22;98668.72;5012850;28;20477;-76
2022/03/23 09:15:52;;;;;;;19.55;14.40;;;10.00;55.50;;;9.33;45.15;98665.38;5013093;28;20423;-75
2022/03/23 09:18:18;;;;;;;20.57;14.40;;;10.10;55.50;;;9.43;45.09;98662.28;5012926;28;20829;-77
2022/03/23 09:20:44;;;;;;;19.90;15.13;;;10.20;55.20;;;9.53;44.74;98665.28;5012152;28;20405;-78
2022/03/23 09:23:10;;;;;;;22.65;15.43;;;10.30;55.00;;;9.59;44.43;98664.44;5012363;28;20397;-78
2022/03/23 09:25:36;;;;;;;18.67;14.53;;;10.30;54.30;;;9.68;44.47;98660.53;5011259;28;20500;-78
2022/03/23 09:28:03;;;;;;;23.65;16.30;;;10.40;54.50;;;9.73;42.68;98664.34;5005345;28;20939;-78
2022/03/23 09:30:31;;;;;;;21.97;16.03;;;10.50;53.00;;;9.89;41.68;98666.47;5008786;28;20416;-78
2022/03/23 09:32:57;;;;;;;22.40;15.63;;;10.70;51.20;;;10.02;41.84;98663.72;5015400;28;20414;-78
2022/03/23 09:35:23;;;;;;;18.15;13.70;;;10.80;51.40;;;10.13;42.18;98665.66;5011215;28;20420;-80
2022/03/23 09:37:49;;;;;;;22.85;15.35;;;10.90;51.70;;;10.23;41.73;98662.53;5011922;28;20433;-77
2022/03/23 09:40:20;;;;;;;17.97;13.07;;;10.90;51.40;;;10.28;41.36;98668.81;5010333;28;20504;-76
2022/03/23 09:42:48;;;;;;;18.27;13.68;;;11.00;51.00;;;10.35;41.76;98666.94;5009909;28;20456;-77
2022/03/23 09:45:22;;;;;;;17.33;13.07;;;11.10;51.30;;;10.44;41.63;98662.16;5019025;28;20861;-80
2022/03/23 09:47:50;;;;;;;18.43;13.23;;;11.20;51.20;;;10.54;41.64;98659.00;5010745;28;20420;-77
2022/03/23 09:50:15;;;;;;;15.93;12.68;;;11.20;51.10;;;10.62;40.48;98658.72;5011420;28;20432;-76
2022/03/23 09:52:41;;;;;;;16.57;12.80;;;11.30;50.30;;;10.75;40.30;98655.94;5011885;28;20409;-76
2022/03/23 09:55:09;;;;;;;15.23;12.50;;;11.40;49.60;;;10.89;40.40;98656.59;5019086;28;20418;-76
2022/03/23 09:57:37;;;;;;;15.65;11.55;;;11.50;49.70;;;11.00;39.95;98658.47;5031103;28;20404;-76
2022/03/23 10:00:08;;;;;;;13.70;10.35;;;11.60;49.40;;;11.10;39.11;98664.88;5031178;28;20411;-77
2022/03/23 10:03:35;;;;;;;12.85;9.82;;;11.70;48.20;;;11.28;38.67;98650.00;5012842;28;20419;-76
2022/03/23 10:06:57;;;;;;;16.80;10.43;;;11.90;47.90;;;11.47;35.61;98654.22;4993659;28;20508;-75
2022/03/23 10:10:31;;;;;;;10.93;8.52;;;12.10;43.90;;;12.11;34.81;98653.44;5010152;28;20397;-76
2022/03/23 10:13:58;;;;;;;12.65;9.75;;;12.50;43.70;;;13.47;31.75;98650.22;4945071;28;20879;-76
2022/03/23 10:17:11;;;;;;;11.93;8.10;;;13.90;40.30;;;15.31;30.35;98657.22;4949289;28;20457;-78
2022/03/23 10:19:42;;;;;;;8.67;6.87;;;15.80;38.50;;;16.74;28.67;98654.72;5009814;28;20419;-80
2022/03/23 10:22:12;;;;;;;11.20;6.85;;;17.60;35.70;;;17.73;26.48;98655.34;5011153;28;20428;-78
2022/03/23 10:24:38;;;;;;;13.27;8.00;;;18.60;32.10;;;18.41;23.81;98650.50;5011169;28;20886;-78
2022/03/23 10:27:10;;;;;;;10.23;7.75;;;19.20;29.00;;;19.21;23.46;98639.81;5011139;28;20412;-78
2022/03/23 10:29:43;;;;;;;10.77;7.55;;;19.90;28.90;;;19.88;23.13;98641.03;5011114;28;20432;-76
2022/03/23 10:32:10;;;;;;;10.88;6.95;;;20.60;28.60;;;20.78;22.69;98639.38;5010864;28;20894;-77